Time,TemperatureF,DewpointF,PressureIn,WindDirection,WindDirectionDegrees,WindSpeedMPH,WindSpeedGustMPH,Humidity,HourlyPrecipIn,Conditions,Clouds,dailyrainin,SolarRadiationWatts/m^2,SoftwareType,DateUTC
2013-03-07 00:01:00,10.0,5.0,-100.00,SE,136,1.0,3.0,79,0.00,,,0.01,0.000000,,2013-03-07 06:01:00,
2013-03-07 00:32:00,6.0,1.0,-100.00,SW,215,2.0,4.0,80,0.00,,,0.01,0.000000,,2013-03-07 06:32:00,
2013-03-07 00:42:00,6.0,1.0,-100.00,SW,215,2.0,4.0,80,0.00,,,0.01,0.000000,,2013-03-07 06:42:00,
2013-03-07 00:52:00,6.0,1.0,-100.00,SW,215,2.0,4.0,80,0.00,,,0.01,0.000000,,2013-03-07 06:52:00,
2013-03-07 01:01:00,6.0,1.0,-100.00,SW,215,2.0,4.0,80,0.00,,,0.01,0.000000,,2013-03-07 07:01:00,
2013-03-07 01:32:00,3.0,-1.0,-100.00,WSW,242,2.0,4.0,81,0.00,,,0.01,0.000000,,2013-03-07 07:32:00,
2013-03-07 01:43:00,3.0,-1.0,-100.00,WSW,242,2.0,4.0,81,0.00,,,0.01,0.000000,,2013-03-07 07:43:00,
2013-03-07 01:53:00,3.0,-1.0,-100.00,WSW,242,2.0,4.0,81,0.00,,,0.01,0.000000,,2013-03-07 07:53:00,
2013-03-07 02:02:00,3.0,-1.0,-100.00,WSW,242,2.0,4.0,81,0.00,,,0.01,0.000000,,2013-03-07 08:02:00,
2013-03-07 02:34:00,0.0,-5.0,-100.00,SW,233,2.0,3.0,79,0.00,,,-99.99,0.000000,,2013-03-07 08:34:00,
2013-03-07 02:45:00,0.0,-5.0,-100.00,SW,233,2.0,3.0,79,0.00,,,-99.99,0.000000,,2013-03-07 08:45:00,
2013-03-07 02:54:00,0.0,-5.0,-100.00,SW,233,2.0,3.0,79,0.00,,,-99.99,0.000000,,2013-03-07 08:54:00,
2013-03-07 03:03:00,0.0,-5.0,-100.00,SW,233,2.0,3.0,79,0.00,,,-99.99,0.000000,,2013-03-07 09:03:00,
2013-03-07 03:33:00,-2.0,-7.0,-100.00,NE,50,1.0,2.0,79,0.00,,,0.00,0.000000,,2013-03-07 09:33:00,
2013-03-07 03:43:00,-2.0,-7.0,-100.00,NE,50,1.0,2.0,79,0.00,,,0.00,0.000000,,2013-03-07 09:43:00,
2013-03-07 04:03:00,-2.0,-7.0,-100.00,NE,50,1.0,2.0,79,0.00,,,0.00,0.000000,,2013-03-07 10:03:00,
2013-03-07 04:24:00,-4.0,-10.0,-100.00,SSW,201,0.0,4.0,75,0.00,,,0.00,0.000000,,2013-03-07 10:24:00,
2013-03-07 04:33:00,-4.0,-10.0,-100.00,SSW,201,0.0,4.0,75,0.00,,,0.00,0.000000,,2013-03-07 10:33:00,
2013-03-07 04:43:00,-4.0,-10.0,-100.00,SSW,201,0.0,4.0,75,0.00,,,0.00,0.000000,,2013-03-07 10:43:00,
2013-03-07 04:53:00,-4.0,-10.0,-100.00,SSW,201,0.0,4.0,75,0.00,,,0.00,0.000000,,2013-03-07 10:53:00,
2013-03-07 05:02:00,-4.0,-10.0,-100.00,SSW,201,0.0,4.0,75,0.00,,,0.00,0.000000,,2013-03-07 11:02:00,
2013-03-07 05:34:00,-5.0,-11.0,-100.00,SE,140,1.0,3.0,74,0.00,,,0.00,0.000000,,2013-03-07 11:34:00,
2013-03-07 05:44:00,-5.0,-11.0,-100.00,SE,140,1.0,3.0,74,0.00,,,0.00,0.000000,,2013-03-07 11:44:00,
2013-03-07 05:54:00,-5.0,-11.0,-100.00,SE,140,1.0,3.0,74,0.00,,,0.00,0.000000,,2013-03-07 11:54:00,
2013-03-07 06:02:00,-5.0,-11.0,-100.00,SE,140,1.0,3.0,74,0.00,,,0.00,0.000000,,2013-03-07 12:02:00,
2013-03-07 06:34:00,-8.0,-15.0,-100.00,West,270,2.0,4.0,72,0.00,,,0.00,0.000000,,2013-03-07 12:34:00,
2013-03-07 06:43:00,-8.0,-15.0,-100.00,West,270,2.0,4.0,72,0.00,,,0.00,0.000000,,2013-03-07 12:43:00,
2013-03-07 06:53:00,-8.0,-15.0,-100.00,West,270,2.0,4.0,72,0.00,,,0.00,0.000000,,2013-03-07 12:53:00,
2013-03-07 07:02:00,-8.0,-15.0,-100.00,West,270,2.0,4.0,72,0.00,,,0.00,0.000000,,2013-03-07 13:02:00,
2013-03-07 07:33:00,-7.0,-14.0,-100.00,ESE,108,2.0,3.0,71,0.00,,,0.00,10.000000,,2013-03-07 13:33:00,
2013-03-07 07:42:00,-7.0,-14.0,-100.00,ESE,108,2.0,3.0,71,0.00,,,0.00,10.000000,,2013-03-07 13:42:00,
2013-03-07 07:53:00,-7.0,-14.0,-100.00,ESE,108,2.0,3.0,71,0.00,,,0.00,10.000000,,2013-03-07 13:53:00,
2013-03-07 08:02:00,-7.0,-14.0,-100.00,ESE,108,2.0,3.0,71,0.00,,,0.00,10.000000,,2013-03-07 14:02:00,
2013-03-07 08:33:00,2.0,-6.0,-100.00,SE,143,1.0,4.0,70,0.00,,,0.00,126.000000,,2013-03-07 14:33:00,
2013-03-07 08:43:00,2.0,-6.0,-100.00,SE,143,1.0,4.0,70,0.00,,,0.00,126.000000,,2013-03-07 14:43:00,
2013-03-07 08:54:00,2.0,-6.0,-100.00,SE,143,1.0,4.0,70,0.00,,,0.00,126.000000,,2013-03-07 14:54:00,
2013-03-07 09:03:00,2.0,-6.0,-100.00,SE,143,1.0,4.0,70,0.00,,,0.00,126.000000,,2013-03-07 15:03:00,
2013-03-07 09:33:00,18.0,10.0,-100.00,WNW,285,1.0,3.0,70,0.00,,,0.00,317.000000,,2013-03-07 15:33:00,
2013-03-07 09:43:00,18.0,10.0,-100.00,WNW,285,1.0,3.0,70,0.00,,,0.00,317.000000,,2013-03-07 15:43:00,
2013-03-07 09:53:00,18.0,10.0,-100.00,WNW,285,1.0,3.0,70,0.00,,,0.00,317.000000,,2013-03-07 15:53:00,
2013-03-07 10:02:00,18.0,10.0,-100.00,WNW,285,1.0,3.0,70,0.00,,,0.00,317.000000,,2013-03-07 16:02:00,
2013-03-07 10:33:00,25.0,11.0,-100.00,ESE,115,3.0,5.0,55,0.00,,,0.00,487.000000,,2013-03-07 16:33:00,
2013-03-07 10:43:00,25.0,11.0,-100.00,ESE,115,3.0,5.0,55,0.00,,,0.00,487.000000,,2013-03-07 16:43:00,
2013-03-07 10:53:00,25.0,11.0,-100.00,ESE,115,3.0,5.0,55,0.00,,,0.00,487.000000,,2013-03-07 16:53:00,
2013-03-07 11:02:00,25.0,11.0,-100.00,ESE,115,3.0,5.0,55,0.00,,,0.00,487.000000,,2013-03-07 17:02:00,
2013-03-07 11:33:00,29.0,11.0,-100.00,NE,51,4.0,8.0,46,0.00,,,0.00,613.000000,,2013-03-07 17:33:00,
2013-03-07 11:44:00,29.0,11.0,-100.00,NE,51,4.0,8.0,46,0.00,,,0.00,613.000000,,2013-03-07 17:44:00,
2013-03-07 11:54:00,29.0,11.0,-100.00,NE,51,4.0,8.0,46,0.00,,,0.00,613.000000,,2013-03-07 17:54:00,
2013-03-07 12:03:00,29.0,11.0,-100.00,NE,51,4.0,8.0,46,0.00,,,0.00,613.000000,,2013-03-07 18:03:00,
2013-03-07 12:22:00,34.0,12.0,-100.00,East,94,3.0,6.0,40,0.00,,,0.00,652.000000,,2013-03-07 18:22:00,
2013-03-07 12:32:00,34.0,12.0,-100.00,East,94,3.0,6.0,40,0.00,,,0.00,652.000000,,2013-03-07 18:32:00,
2013-03-07 12:42:00,34.0,12.0,-100.00,East,94,3.0,6.0,40,0.00,,,0.00,652.000000,,2013-03-07 18:42:00,
2013-03-07 13:03:00,34.0,12.0,-100.00,East,94,3.0,6.0,40,0.00,,,0.00,652.000000,,2013-03-07 19:03:00,
2013-03-07 13:35:00,35.0,10.0,-100.00,SE,125,5.0,7.0,35,0.00,,,0.00,681.000000,,2013-03-07 19:35:00,
2013-03-07 13:44:00,35.0,10.0,-100.00,SE,125,5.0,7.0,35,0.00,,,0.00,681.000000,,2013-03-07 19:44:00,
2013-03-07 13:53:00,35.0,10.0,-100.00,SE,125,5.0,7.0,35,0.00,,,0.00,681.000000,,2013-03-07 19:53:00,
2013-03-07 14:02:00,35.0,10.0,-100.00,SE,125,5.0,7.0,35,0.00,,,0.00,681.000000,,2013-03-07 20:02:00,
2013-03-07 14:34:00,40.0,14.0,-100.00,East,92,3.0,9.0,34,0.00,,,0.00,684.000000,,2013-03-07 20:34:00,
2013-03-07 14:43:00,40.0,14.0,-100.00,East,92,3.0,9.0,34,0.00,,,0.00,684.000000,,2013-03-07 20:43:00,
2013-03-07 14:54:00,40.0,14.0,-100.00,East,92,3.0,9.0,34,0.00,,,0.00,684.000000,,2013-03-07 20:54:00,
2013-03-07 15:02:00,40.0,14.0,-100.00,East,92,3.0,9.0,34,0.00,,,0.00,684.000000,,2013-03-07 21:02:00,
2013-03-07 15:33:00,40.0,13.0,-100.00,West,273,5.0,7.0,32,0.00,,,0.00,581.000000,,2013-03-07 21:33:00,
2013-03-07 15:43:00,40.0,13.0,-100.00,West,273,5.0,7.0,32,0.00,,,0.00,581.000000,,2013-03-07 21:43:00,
2013-03-07 15:53:00,40.0,13.0,-100.00,West,273,5.0,7.0,32,0.00,,,0.00,581.000000,,2013-03-07 21:53:00,
2013-03-07 16:02:00,40.0,13.0,-100.00,West,273,5.0,7.0,32,0.00,,,0.00,581.000000,,2013-03-07 22:02:00,
2013-03-07 16:33:00,39.0,12.0,-100.00,SE,131,4.0,9.0,32,0.00,,,0.00,428.000000,,2013-03-07 22:33:00,
2013-03-07 16:43:00,39.0,12.0,-100.00,SE,131,4.0,9.0,32,0.00,,,0.00,428.000000,,2013-03-07 22:43:00,
2013-03-07 16:54:00,39.0,12.0,-100.00,SE,131,4.0,9.0,32,0.00,,,0.00,428.000000,,2013-03-07 22:54:00,
2013-03-07 17:02:00,39.0,12.0,-100.00,SE,131,4.0,9.0,32,0.00,,,0.00,428.000000,,2013-03-07 23:02:00,
2013-03-07 17:44:00,35.0,11.0,-100.00,SSE,164,8.0,13.0,37,0.00,,,0.00,243.000000,,2013-03-07 23:44:00,
2013-03-07 17:54:00,35.0,11.0,-100.00,SSE,164,8.0,13.0,37,0.00,,,0.00,243.000000,,2013-03-07 23:54:00,
2013-03-07 18:03:00,35.0,11.0,-100.00,SSE,164,8.0,13.0,37,0.00,,,0.00,243.000000,,2013-03-08 00:03:00,
2013-03-07 18:34:00,28.0,11.0,-100.00,SSE,160,11.0,15.0,48,0.00,,,0.00,55.000000,,2013-03-08 00:34:00,
2013-03-07 18:44:00,28.0,11.0,-100.00,SSE,160,11.0,15.0,48,0.00,,,0.00,55.000000,,2013-03-08 00:44:00,
2013-03-07 18:54:00,28.0,11.0,-100.00,SSE,160,11.0,15.0,48,0.00,,,0.00,55.000000,,2013-03-08 00:54:00,
2013-03-07 19:02:00,28.0,11.0,-100.00,SSE,160,11.0,15.0,48,0.00,,,0.00,55.000000,,2013-03-08 01:02:00,
2013-03-07 19:33:00,25.0,12.0,-100.00,SSE,151,9.0,13.0,56,0.00,,,-99.99,0.000000,,2013-03-08 01:33:00,
2013-03-07 19:42:00,25.0,12.0,-100.00,SSE,151,9.0,13.0,56,0.00,,,-99.99,0.000000,,2013-03-08 01:42:00,
2013-03-07 19:52:00,25.0,12.0,-100.00,SSE,151,9.0,13.0,56,0.00,,,-99.99,0.000000,,2013-03-08 01:52:00,
2013-03-07 20:01:00,25.0,12.0,-100.00,SSE,151,9.0,13.0,56,0.00,,,-99.99,0.000000,,2013-03-08 02:01:00,
2013-03-07 20:32:00,22.0,11.0,-100.00,SE,139,11.0,15.0,62,0.00,,,0.00,0.000000,,2013-03-08 02:32:00,
2013-03-07 20:42:00,22.0,11.0,-100.00,SE,139,11.0,15.0,62,0.00,,,0.00,0.000000,,2013-03-08 02:42:00,
2013-03-07 20:53:00,22.0,11.0,-100.00,SE,139,11.0,15.0,62,0.00,,,0.00,0.000000,,2013-03-08 02:53:00,
2013-03-07 21:02:00,22.0,11.0,-100.00,SE,139,11.0,15.0,62,0.00,,,0.00,0.000000,,2013-03-08 03:02:00,
2013-03-07 21:33:00,18.0,9.0,-100.00,SE,141,10.0,16.0,67,0.00,,,0.00,0.000000,,2013-03-08 03:33:00,
2013-03-07 21:43:00,18.0,9.0,-100.00,SE,141,10.0,16.0,67,0.00,,,0.00,0.000000,,2013-03-08 03:43:00,
2013-03-07 21:53:00,18.0,9.0,-100.00,SE,141,10.0,16.0,67,0.00,,,0.00,0.000000,,2013-03-08 03:53:00,
2013-03-07 22:01:00,18.0,9.0,-100.00,SE,141,10.0,16.0,67,0.00,,,0.00,0.000000,,2013-03-08 04:01:00,
2013-03-07 22:22:00,16.0,10.0,-100.00,SE,143,7.0,13.0,76,0.00,,,0.00,0.000000,,2013-03-08 04:22:00,
2013-03-07 22:32:00,16.0,10.0,-100.00,SE,143,7.0,13.0,76,0.00,,,0.00,0.000000,,2013-03-08 04:32:00,
2013-03-07 22:42:00,16.0,10.0,-100.00,SE,143,7.0,13.0,76,0.00,,,0.00,0.000000,,2013-03-08 04:42:00,
2013-03-07 22:52:00,16.0,10.0,-100.00,SE,143,7.0,13.0,76,0.00,,,0.00,0.000000,,2013-03-08 04:52:00,
2013-03-07 23:02:00,16.0,10.0,-100.00,SE,143,7.0,13.0,76,0.00,,,0.00,0.000000,,2013-03-08 05:02:00,
2013-03-07 23:33:00,16.0,11.0,-100.00,SE,143,7.0,11.0,82,0.00,,,0.00,0.000000,,2013-03-08 05:33:00,
2013-03-07 23:42:00,16.0,11.0,-100.00,SE,143,7.0,11.0,82,0.00,,,0.00,0.000000,,2013-03-08 05:42:00,
2013-03-07 23:52:00,16.0,11.0,-100.00,SE,143,7.0,11.0,82,0.00,,,0.00,0.000000,,2013-03-08 05:52:00,